createdAt,value
2018-08-13T00:01:48.153Z,20.40
2018-08-13T00:07:03.934Z,20.30
2018-08-13T00:12:19.198Z,20.30
2018-08-13T00:17:34.463Z,20.20
2018-08-13T00:22:51.624Z,20.10
2018-08-13T00:33:22.567Z,20.00
2018-08-13T00:38:36.332Z,19.90
2018-08-13T00:49:16.595Z,19.80
2018-08-13T00:54:26.040Z,19.70
2018-08-13T01:05:08.628Z,19.60
2018-08-13T01:10:26.679Z,19.50
2018-08-13T01:15:44.670Z,19.40
2018-08-13T01:20:56.760Z,19.40
2018-08-13T01:31:39.229Z,19.30
2018-08-13T01:42:10.611Z,19.10
2018-08-13T01:47:26.944Z,19.10
2018-08-13T01:52:35.406Z,19.00
2018-08-13T01:57:58.628Z,19.00
2018-08-13T02:03:14.013Z,18.90
2018-08-13T02:08:27.351Z,18.80
2018-08-13T02:13:36.321Z,18.80
2018-08-13T02:24:05.912Z,18.70
2018-08-13T02:29:19.271Z,18.60
2018-08-13T02:34:30.887Z,18.60
2018-08-13T02:39:44.451Z,18.50
2018-08-13T02:44:56.445Z,18.50
2018-08-13T02:50:18.386Z,18.40
2018-08-13T02:55:37.664Z,18.40
2018-08-13T03:06:13.630Z,18.20
2018-08-13T03:11:30.211Z,18.20
2018-08-13T03:16:39.057Z,18.10
2018-08-13T03:21:49.387Z,18.10
2018-08-13T03:27:01.034Z,18.10
2018-08-13T03:32:15.088Z,18.00
2018-08-13T03:37:30.015Z,18.00
2018-08-13T03:42:44.599Z,18.00
2018-08-13T03:48:14.158Z,18.00
2018-08-13T03:53:24.721Z,18.00
2018-08-13T03:58:40.300Z,17.90
2018-08-13T04:03:52.356Z,17.90
2018-08-13T04:09:02.299Z,17.90
2018-08-13T04:14:16.270Z,17.90
2018-08-13T04:24:54.181Z,17.80
2018-08-13T04:29:58.413Z,17.80
2018-08-13T04:35:01.558Z,17.80
2018-08-13T04:40:07.558Z,17.80
2018-08-13T04:45:11.060Z,17.80
2018-08-13T04:50:14.220Z,17.90
2018-08-13T04:55:17.757Z,17.90
2018-08-13T05:00:20.911Z,17.90
2018-08-13T05:05:24.065Z,17.90
2018-08-13T05:10:27.256Z,18.00
2018-08-13T05:15:30.410Z,18.00
2018-08-13T05:26:21.615Z,18.20
2018-08-13T05:31:36.933Z,18.30
2018-08-13T05:36:40.446Z,18.60
2018-08-13T05:41:43.826Z,18.80
2018-08-13T05:46:47.165Z,18.90
2018-08-13T05:51:51.062Z,19.20
2018-08-13T05:56:54.523Z,19.40
2018-08-13T06:01:58.072Z,19.70
2018-08-13T06:07:02.712Z,20.00
2018-08-13T06:12:06.413Z,20.30
2018-08-13T06:17:10.163Z,20.70
2018-08-13T06:22:13.551Z,21.10
2018-08-13T06:27:16.957Z,21.40
2018-08-13T06:32:22.043Z,21.80
2018-08-13T06:37:27.922Z,22.20
2018-08-13T06:42:31.121Z,22.50
2018-08-13T06:47:34.269Z,22.90
2018-08-13T06:52:37.427Z,23.20
2018-08-13T06:57:40.605Z,23.50
2018-08-13T07:02:43.733Z,23.90
2018-08-13T07:07:47.593Z,24.30
2018-08-13T07:12:50.728Z,24.60
2018-08-13T07:17:53.904Z,25.00
2018-08-13T07:22:57.049Z,25.20
2018-08-13T07:28:00.303Z,25.60
2018-08-13T07:33:03.384Z,25.90
2018-08-13T07:38:06.540Z,26.40
2018-08-13T07:43:09.778Z,26.70
2018-08-13T07:48:12.929Z,27.00
2018-08-13T07:53:16.082Z,27.40
2018-08-13T07:58:19.264Z,27.70
2018-08-13T08:03:22.404Z,28.00
2018-08-13T08:08:26.420Z,28.30
2018-08-13T08:13:29.574Z,28.60
2018-08-13T08:18:32.804Z,28.90
2018-08-13T08:23:35.953Z,29.10
2018-08-13T08:28:39.112Z,29.30
2018-08-13T08:33:43.824Z,29.60
2018-08-13T08:38:51.693Z,29.90
2018-08-13T08:43:57.736Z,30.20
2018-08-13T08:49:03.927Z,30.50
2018-08-13T08:54:11.677Z,30.70
2018-08-13T08:59:17.176Z,31.00
2018-08-13T09:04:22.524Z,31.20
2018-08-13T09:09:32.870Z,31.40
2018-08-13T09:14:38.825Z,31.70
2018-08-13T09:19:54.725Z,32.00
2018-08-13T09:25:10.157Z,32.10
2018-08-13T09:30:25.382Z,32.50
2018-08-13T09:35:33.015Z,32.80
2018-08-13T09:40:39.710Z,33.00
2018-08-13T09:45:44.901Z,33.20
2018-08-13T09:50:50.240Z,33.40
2018-08-13T09:55:55.315Z,33.70
2018-08-13T10:01:06.290Z,33.80
2018-08-13T10:06:14.795Z,34.00
2018-08-13T10:11:21.225Z,34.20
2018-08-13T10:16:25.723Z,34.40
2018-08-13T10:21:37.389Z,34.60
2018-08-13T10:26:42.352Z,34.60
2018-08-13T10:31:51.022Z,34.60
2018-08-13T10:37:01.494Z,34.70
2018-08-13T10:42:10.575Z,34.70
2018-08-13T10:47:19.084Z,34.70
2018-08-13T10:52:25.929Z,34.60
2018-08-13T10:57:33.033Z,34.60
2018-08-13T11:02:42.963Z,34.60
2018-08-13T11:07:54.154Z,34.60
2018-08-13T11:13:01.401Z,34.70
2018-08-13T11:18:09.406Z,34.80
2018-08-13T11:23:16.297Z,34.90
2018-08-13T11:28:21.896Z,35.00
2018-08-13T11:33:28.197Z,35.10
2018-08-13T11:38:33.827Z,35.20
2018-08-13T11:43:40.639Z,35.30
2018-08-13T11:48:47.546Z,35.30
2018-08-13T11:53:53.197Z,35.40
2018-08-13T11:58:58.792Z,35.30
2018-08-13T12:04:06.809Z,35.30
2018-08-13T12:09:14.040Z,35.40
2018-08-13T12:14:19.403Z,35.30
2018-08-13T12:19:24.547Z,35.30
2018-08-13T12:24:29.773Z,35.40
2018-08-13T12:29:34.893Z,35.40
2018-08-13T12:34:39.554Z,35.40
2018-08-13T12:39:47.513Z,35.50
2018-08-13T12:44:52.807Z,35.50
2018-08-13T12:50:01.045Z,35.50
2018-08-13T13:02:45.008Z,35.40
2018-08-13T13:07:53.282Z,35.20
2018-08-13T13:13:00.131Z,35.10
2018-08-13T13:18:09.878Z,35.10
2018-08-13T13:23:21.242Z,35.00
2018-08-13T13:28:31.675Z,34.90
2018-08-13T13:33:38.547Z,34.90
2018-08-13T13:38:43.162Z,34.80
2018-08-13T13:43:49.596Z,34.70
2018-08-13T13:48:58.023Z,34.50
2018-08-13T13:54:05.297Z,34.30
2018-08-13T13:59:09.882Z,34.10
2018-08-13T14:04:15.922Z,34.00
2018-08-13T14:09:22.332Z,33.70
2018-08-13T14:14:27.301Z,33.50
2018-08-13T14:19:32.081Z,33.30
2018-08-13T14:24:46.362Z,33.10
2018-08-13T14:29:52.149Z,32.90
2018-08-13T14:34:57.024Z,32.60
2018-08-13T14:40:03.272Z,32.50
2018-08-13T14:45:10.626Z,32.30
2018-08-13T14:50:20.742Z,32.30
2018-08-13T14:55:26.817Z,32.00
2018-08-13T15:00:40.969Z,31.90
2018-08-13T15:05:47.620Z,31.70
2018-08-13T15:10:52.453Z,31.60
2018-08-13T15:15:57.537Z,31.50
2018-08-13T15:21:03.751Z,31.40
2018-08-13T15:26:13.975Z,31.20
2018-08-13T15:31:19.357Z,31.10
2018-08-13T15:36:25.349Z,30.90
2018-08-13T15:41:34.377Z,30.80
2018-08-13T15:46:40.413Z,30.60
2018-08-13T15:51:44.590Z,30.40
2018-08-13T15:56:50.904Z,30.20
2018-08-13T16:01:55.730Z,30.00
2018-08-13T16:07:01.246Z,29.80
2018-08-13T16:12:06.284Z,29.60
2018-08-13T16:17:12.552Z,29.30
2018-08-13T16:22:17.234Z,29.00
2018-08-13T16:27:24.907Z,28.80
2018-08-13T16:32:28.263Z,28.60
2018-08-13T16:37:32.121Z,28.30
2018-08-13T16:42:36.431Z,28.10
2018-08-13T16:47:39.751Z,27.90
2018-08-13T16:52:44.175Z,27.60
2018-08-13T16:57:48.888Z,27.40
2018-08-13T17:02:52.658Z,27.20
2018-08-13T17:07:56.896Z,26.90
2018-08-13T17:13:00.328Z,26.70
2018-08-13T17:18:05.109Z,26.50
2018-08-13T17:23:08.490Z,26.30
2018-08-13T17:28:13.682Z,26.10
2018-08-13T17:33:17.526Z,25.80
2018-08-13T17:38:21.424Z,25.60
2018-08-13T17:43:25.712Z,25.40
2018-08-13T17:48:35.789Z,25.20
2018-08-13T17:53:49.053Z,25.10
2018-08-13T17:59:01.339Z,25.00
2018-08-13T18:04:14.886Z,24.80
2018-08-13T18:09:24.973Z,24.70
2018-08-13T18:14:43.026Z,24.60
2018-08-13T18:19:52.898Z,24.40
2018-08-13T18:25:04.204Z,24.30
2018-08-13T18:30:14.702Z,24.20
2018-08-13T18:35:34.446Z,24.10
2018-08-13T18:45:58.091Z,23.90
2018-08-13T18:51:07.311Z,23.80
2018-08-13T18:56:30.793Z,23.70
2018-08-13T19:02:00.412Z,23.50
2018-08-13T19:07:25.078Z,23.40
2018-08-13T19:12:40.144Z,23.30
2018-08-13T19:17:53.423Z,23.20
2018-08-13T19:23:10.053Z,23.10
2018-08-13T19:28:20.692Z,23.00
2018-08-13T19:33:38.020Z,22.90
2018-08-13T19:38:57.820Z,22.80
2018-08-13T19:44:17.256Z,22.80
2018-08-13T19:49:29.904Z,22.70
2018-08-13T19:54:40.291Z,22.60
2018-08-13T19:59:49.753Z,22.60
2018-08-13T20:05:03.838Z,22.50
2018-08-13T20:10:36.681Z,22.50
2018-08-13T20:15:53.011Z,22.40
2018-08-13T20:21:08.229Z,22.30
2018-08-13T20:26:24.715Z,22.30
2018-08-13T20:37:04.571Z,22.10
2018-08-13T20:42:27.970Z,22.10
2018-08-13T20:47:35.849Z,22.00
2018-08-13T20:53:07.322Z,22.00
2018-08-13T21:09:52.747Z,21.80
2018-08-13T21:15:15.355Z,21.80
2018-08-13T21:20:31.858Z,21.70
2018-08-13T21:26:02.031Z,21.70
2018-08-13T21:38:00.930Z,21.60
2018-08-13T21:43:23.237Z,21.50
2018-08-13T21:48:40.618Z,21.50
2018-08-13T21:53:51.158Z,21.40
2018-08-13T21:59:07.475Z,21.40
2018-08-13T22:04:24.311Z,21.30
2018-08-13T22:09:42.143Z,21.30
2018-08-13T22:15:08.999Z,21.30
2018-08-13T22:20:20.763Z,21.20
2018-08-13T22:26:07.412Z,21.20
2018-08-13T22:36:35.059Z,21.10
2018-08-13T22:41:52.894Z,21.00
2018-08-13T22:52:51.689Z,21.00
2018-08-13T23:03:40.970Z,20.90
2018-08-13T23:09:05.549Z,20.80
2018-08-13T23:14:26.269Z,20.80
2018-08-13T23:19:59.352Z,20.70
2018-08-13T23:30:39.115Z,20.70
2018-08-13T23:35:59.595Z,20.60
2018-08-13T23:41:33.019Z,20.60
2018-08-13T23:57:35.633Z,20.50
